createdAt,value
2023-04-02T00:03:54.216Z,99515.29
2023-04-02T00:08:49.030Z,99522.00
2023-04-02T00:13:46.831Z,99531.10
2023-04-02T00:18:46.857Z,99541.77
2023-04-02T00:23:41.999Z,99546.90
2023-04-02T00:28:34.832Z,99550.98
2023-04-02T00:33:31.589Z,99549.06
2023-04-02T00:38:30.917Z,99553.54
2023-04-02T00:43:28.020Z,99555.23
2023-04-02T00:49:02.539Z,99558.34
2023-04-02T00:53:59.515Z,99558.99
2023-04-02T00:58:54.636Z,99569.47
2023-04-02T01:03:59.960Z,99572.03
2023-04-02T01:09:08.167Z,99577.70
2023-04-02T01:14:27.066Z,99578.52
2023-04-02T01:19:42.512Z,99582.42
2023-04-02T01:25:04.382Z,99586.00
2023-04-02T01:29:59.812Z,99586.32
2023-04-02T01:34:53.671Z,99590.77
2023-04-02T01:40:07.686Z,99590.90
2023-04-02T01:45:12.707Z,99594.64
2023-04-02T01:50:19.622Z,99595.48
2023-04-02T01:55:15.603Z,99602.69
2023-04-02T02:00:13.532Z,99609.23
2023-04-02T02:05:13.822Z,99615.04
2023-04-02T02:10:08.235Z,99616.17
2023-04-02T02:15:01.280Z,99621.42
2023-04-02T02:19:58.487Z,99626.88
2023-04-02T02:24:51.496Z,99634.23
2023-04-02T02:29:48.353Z,99630.76
2023-04-02T02:34:53.866Z,99638.64
2023-04-02T02:39:53.096Z,99645.55
2023-04-02T02:44:50.005Z,99648.13
2023-04-02T02:49:55.393Z,99658.74
2023-04-02T02:54:54.986Z,99667.02
2023-04-02T02:59:51.864Z,99665.18
2023-04-02T03:04:49.346Z,99673.56
2023-04-02T03:10:01.713Z,99677.86
2023-04-02T03:15:07.507Z,99684.48
2023-04-02T03:20:14.745Z,99685.45
2023-04-02T03:25:23.810Z,99695.16
2023-04-02T03:30:38.727Z,99700.64
2023-04-02T03:35:38.385Z,99705.79
2023-04-02T03:41:06.816Z,99709.61
2023-04-02T03:46:35.537Z,99714.91
2023-04-02T03:51:31.787Z,99723.84
2023-04-02T03:56:40.166Z,99733.30
2023-04-02T04:01:45.256Z,99737.92
2023-04-02T04:06:47.598Z,99746.73
2023-04-02T04:11:47.071Z,99753.77
2023-04-02T04:16:47.584Z,99762.04
2023-04-02T04:21:45.472Z,99767.40
2023-04-02T04:27:36.117Z,99772.84
2023-04-02T04:32:34.542Z,99777.21
2023-04-02T04:37:42.694Z,99785.73
2023-04-02T04:42:39.564Z,99789.97
2023-04-02T04:47:42.799Z,99796.42
2023-04-02T04:52:40.051Z,99801.68
2023-04-02T04:57:37.586Z,99808.94
2023-04-02T05:02:47.095Z,99816.77
2023-04-02T05:07:50.774Z,99821.58
2023-04-02T05:12:51.022Z,99829.77
2023-04-02T05:18:22.075Z,99840.85
2023-04-02T05:23:30.194Z,99847.17
2023-04-02T05:28:36.915Z,99855.95
2023-04-02T05:33:32.629Z,99866.98
2023-04-02T05:38:33.465Z,99876.84
2023-04-02T05:43:27.928Z,99886.45
2023-04-02T05:48:43.451Z,99892.20
2023-04-02T05:53:41.921Z,99901.85
2023-04-02T05:58:47.436Z,99904.88
2023-04-02T06:03:49.110Z,99909.48
2023-04-02T06:08:56.484Z,99906.92
2023-04-02T06:13:51.113Z,99917.02
2023-04-02T06:18:47.111Z,99922.30
2023-04-02T06:23:46.876Z,99924.52
2023-04-02T06:28:50.274Z,99942.20
2023-04-02T06:33:44.797Z,99958.36
2023-04-02T06:38:41.136Z,99963.64
2023-04-02T06:43:42.431Z,99972.40
2023-04-02T06:49:02.542Z,99971.42
2023-04-02T06:53:56.301Z,99967.37
2023-04-02T06:58:49.306Z,99968.32
2023-04-02T07:03:43.254Z,99975.98
2023-04-02T07:08:52.012Z,99985.53
2023-04-02T07:13:46.479Z,99990.47
2023-04-02T07:18:39.649Z,99997.70
2023-04-02T07:23:32.644Z,100006.69
2023-04-02T07:28:25.960Z,100013.50
2023-04-02T07:33:21.795Z,100024.47
2023-04-02T07:38:14.754Z,100032.02
2023-04-02T07:43:08.121Z,100037.23
2023-04-02T07:48:08.704Z,100053.14
2023-04-02T07:53:02.105Z,100059.02
2023-04-02T07:57:57.798Z,100054.98
2023-04-02T08:02:51.666Z,100054.26
2023-04-02T08:07:45.697Z,100060.37
2023-04-02T08:12:39.393Z,100062.96
2023-04-02T08:17:34.121Z,100061.86
2023-04-02T08:22:27.915Z,100072.52
2023-04-02T08:27:20.848Z,100089.86
2023-04-02T08:32:16.380Z,100097.48
2023-04-02T08:37:12.964Z,100092.65
2023-04-02T08:42:19.958Z,100097.21
2023-04-02T08:47:15.689Z,100099.23
2023-04-02T08:52:22.111Z,100109.74
2023-04-02T08:57:28.802Z,100123.64
2023-04-02T09:02:28.351Z,100135.54
2023-04-02T09:07:21.937Z,100144.45
2023-04-02T09:12:21.665Z,100146.23
2023-04-02T09:17:22.929Z,100147.87
2023-04-02T09:22:23.191Z,100154.81
2023-04-02T09:27:20.539Z,100159.90
2023-04-02T09:32:36.644Z,100159.42
2023-04-02T09:37:29.594Z,100157.79
2023-04-02T09:42:35.264Z,100162.39
2023-04-02T09:47:28.979Z,100164.73
2023-04-02T09:52:28.710Z,100168.77
2023-04-02T09:57:28.164Z,100178.13
2023-04-02T10:02:31.168Z,100185.60
2023-04-02T10:07:41.459Z,100188.56
2023-04-02T10:12:41.625Z,100193.60
2023-04-02T10:17:38.723Z,100201.90
2023-04-02T10:22:31.682Z,100212.49
2023-04-02T10:27:31.379Z,100217.09
2023-04-02T10:32:39.298Z,100223.11
2023-04-02T10:37:35.008Z,100226.16
2023-04-02T10:42:53.973Z,100236.55
2023-04-02T10:48:19.551Z,100242.84
2023-04-02T10:53:22.862Z,100246.49
2023-04-02T10:58:26.664Z,100247.58
2023-04-02T11:03:58.824Z,100256.56
2023-04-02T11:09:02.375Z,100272.41
2023-04-02T11:14:13.794Z,100281.16
2023-04-02T11:19:15.967Z,100286.79
2023-04-02T11:24:32.764Z,100290.81
2023-04-02T11:29:29.802Z,100297.80
2023-04-02T11:35:05.143Z,100306.62
2023-04-02T11:40:12.232Z,100319.55
2023-04-02T11:45:23.375Z,100326.17
2023-04-02T11:50:30.413Z,100328.95
2023-04-02T11:55:27.446Z,100336.94
2023-04-02T12:00:46.451Z,100344.69
2023-04-02T12:05:54.714Z,100359.20
2023-04-02T12:10:55.762Z,100365.16
2023-04-02T12:15:50.539Z,100369.02
2023-04-02T12:20:48.744Z,100371.28
2023-04-02T12:26:14.417Z,100378.30
2023-04-02T12:31:10.351Z,100381.20
2023-04-02T12:36:04.211Z,100385.70
2023-04-02T12:41:03.674Z,100392.58
2023-04-02T12:46:02.116Z,100384.55
2023-04-02T12:50:56.305Z,100380.60
2023-04-02T12:55:51.467Z,100392.87
2023-04-02T13:00:44.332Z,100406.72
2023-04-02T13:05:51.011Z,100410.69
2023-04-02T13:10:44.700Z,100404.46
2023-04-02T13:15:37.939Z,100414.88
2023-04-02T13:20:33.968Z,100422.06
2023-04-02T13:25:33.441Z,100425.42
2023-04-02T13:30:29.396Z,100431.02
2023-04-02T13:35:23.252Z,100435.61
2023-04-02T13:40:19.307Z,100436.75
2023-04-02T13:45:41.413Z,100440.29
2023-04-02T13:50:37.448Z,100448.83
2023-04-02T13:55:35.920Z,100454.79
2023-04-02T14:00:28.852Z,100461.20
2023-04-02T14:05:40.724Z,100466.23
2023-04-02T14:11:06.012Z,100466.44
2023-04-02T14:16:29.257Z,100459.30
2023-04-02T14:22:13.161Z,100465.64
2023-04-02T14:27:25.107Z,100488.08
2023-04-02T14:32:29.792Z,100495.98
2023-04-02T14:37:43.869Z,100501.05
2023-04-02T14:42:52.030Z,100503.09
2023-04-02T14:47:56.674Z,100509.77
2023-04-02T14:52:58.060Z,100515.23
2023-04-02T14:57:53.927Z,100523.95
2023-04-02T15:02:53.058Z,100528.23
2023-04-02T15:08:16.595Z,100537.34
2023-04-02T15:13:20.331Z,100539.71
2023-04-02T15:18:20.073Z,100549.00
2023-04-02T15:23:20.670Z,100559.45
2023-04-02T15:28:39.297Z,100568.98
2023-04-02T15:33:35.882Z,100574.75
2023-04-02T15:38:43.858Z,100576.30
2023-04-02T15:43:39.660Z,100582.70
2023-04-02T15:48:49.513Z,100585.91
2023-04-02T15:54:00.884Z,100594.48
2023-04-02T15:59:18.979Z,100599.86
2023-04-02T16:04:20.639Z,100613.59
2023-04-02T16:09:30.867Z,100619.95
2023-04-02T16:14:34.167Z,100629.98
2023-04-02T16:19:36.364Z,100639.48
2023-04-02T16:24:29.297Z,100651.43
2023-04-02T16:30:09.907Z,100658.08
2023-04-02T16:35:43.118Z,100666.77
2023-04-02T16:40:57.226Z,100680.05
2023-04-02T16:46:07.202Z,100685.25
2023-04-02T16:51:30.182Z,100688.34
2023-04-02T16:56:36.738Z,100690.60
2023-04-02T17:01:49.997Z,100691.69
2023-04-02T17:06:45.650Z,100696.98
2023-04-02T17:11:46.482Z,100706.90
2023-04-02T17:16:45.102Z,100717.98
2023-04-02T17:21:40.728Z,100726.52
2023-04-02T17:26:38.046Z,100732.98
2023-04-02T17:31:35.896Z,100741.07
2023-04-02T17:36:30.016Z,100752.85
2023-04-02T17:41:26.837Z,100753.87
2023-04-02T17:46:22.686Z,100759.13
2023-04-02T17:51:21.772Z,100762.59
2023-04-02T17:56:43.389Z,100767.45
2023-04-02T18:02:01.639Z,100770.11
2023-04-02T18:07:25.129Z,100778.50
2023-04-02T18:12:31.477Z,100794.60
2023-04-02T18:17:48.201Z,100797.39
2023-04-02T18:22:56.522Z,100802.19
2023-04-02T18:28:10.032Z,100804.57
2023-04-02T18:33:32.322Z,100808.67
2023-04-02T18:38:25.108Z,100813.42
2023-04-02T18:43:19.026Z,100817.15
2023-04-02T18:48:35.479Z,100826.67
2023-04-02T18:53:33.931Z,100830.81
2023-04-02T18:58:35.257Z,100836.41
2023-04-02T19:03:34.071Z,100839.70
2023-04-02T19:08:51.848Z,100842.90
2023-04-02T19:13:45.891Z,100846.46
2023-04-02T19:18:51.116Z,100851.14
2023-04-02T19:24:13.927Z,100851.19
2023-04-02T19:29:42.475Z,100855.80
2023-04-02T19:34:47.968Z,100862.47
2023-04-02T19:40:09.518Z,100864.58
2023-04-02T19:45:04.033Z,100865.66
2023-04-02T19:49:57.545Z,100868.95
2023-04-02T19:54:50.398Z,100872.73
2023-04-02T19:59:43.282Z,100872.52
2023-04-02T20:04:36.407Z,100875.09
2023-04-02T20:09:29.924Z,100874.80
2023-04-02T20:14:22.893Z,100878.17
2023-04-02T20:19:15.802Z,100882.05
2023-04-02T20:24:09.737Z,100886.48
2023-04-02T20:29:02.680Z,100883.07
2023-04-02T20:33:57.576Z,100892.64
2023-04-02T20:38:51.608Z,100895.77
2023-04-02T20:43:44.403Z,100904.98
2023-04-02T20:48:37.885Z,100906.57
2023-04-02T20:53:33.745Z,100917.19
2023-04-02T20:58:26.612Z,100923.73
2023-04-02T21:03:19.837Z,100925.27
2023-04-02T21:08:13.775Z,100927.89
2023-04-02T21:13:06.832Z,100929.02
2023-04-02T21:17:59.992Z,100933.79
2023-04-02T21:22:52.838Z,100930.59
2023-04-02T21:27:46.042Z,100929.62
2023-04-02T21:32:38.982Z,100931.39
2023-04-02T21:37:32.154Z,100935.14
2023-04-02T21:42:26.038Z,100939.36
2023-04-02T21:47:18.907Z,100939.09
2023-04-02T21:52:11.970Z,100942.65
2023-04-02T21:57:05.562Z,100944.84
2023-04-02T22:01:58.510Z,100945.89
2023-04-02T22:06:53.275Z,100947.80
2023-04-02T22:11:59.549Z,100954.58
2023-04-02T22:17:25.209Z,100957.61
2023-04-02T22:22:18.062Z,100961.69
2023-04-02T22:27:10.914Z,100974.63
2023-04-02T22:32:03.710Z,100975.14
2023-04-02T22:36:57.332Z,100985.26
2023-04-02T22:41:50.748Z,100990.63
2023-04-02T22:46:47.816Z,100992.77
2023-04-02T22:51:41.090Z,100997.13
2023-04-02T22:56:35.505Z,100994.53
2023-04-02T23:01:32.371Z,100998.82
2023-04-02T23:06:26.565Z,101000.73
2023-04-02T23:11:23.712Z,101001.67
2023-04-02T23:16:17.824Z,101005.52
2023-04-02T23:21:11.799Z,101006.09
2023-04-02T23:26:07.366Z,101007.67
2023-04-02T23:31:02.051Z,101007.34
2023-04-02T23:35:55.048Z,101012.83
2023-04-02T23:40:48.781Z,101014.29
2023-04-02T23:45:41.572Z,101023.04
2023-04-02T23:50:34.817Z,101028.80
2023-04-02T23:55:28.205Z,101037.44
